createdAt,value
2022-08-03T00:00:02.733Z,18.7
2022-08-03T00:02:04.919Z,18.7
2022-08-03T00:06:05.169Z,18.5
2022-08-03T00:08:08.295Z,18.5
2022-08-03T00:10:03.989Z,18.4
2022-08-03T00:12:01.402Z,18.3
2022-08-03T00:14:01.807Z,18.3
2022-08-03T00:16:01.211Z,18.3
2022-08-03T00:18:02.207Z,18.4
2022-08-03T00:20:02.600Z,18.5
2022-08-03T00:22:01.219Z,18.4
2022-08-03T00:24:01.432Z,18.5
2022-08-03T00:26:01.433Z,18.4
2022-08-03T00:28:01.218Z,18.3
2022-08-03T00:30:05.000Z,18.3
2022-08-03T00:32:01.905Z,18.4
2022-08-03T00:34:03.263Z,18.7
2022-08-03T00:36:02.136Z,18.8
2022-08-03T00:38:04.355Z,18.9
2022-08-03T00:40:01.237Z,19
2022-08-03T00:42:01.793Z,18.8
2022-08-03T00:44:01.452Z,18.5
2022-08-03T00:46:02.192Z,18.3
2022-08-03T00:48:01.501Z,18.2
2022-08-03T00:50:01.441Z,18.2
2022-08-03T00:52:01.228Z,18.3
2022-08-03T00:54:05.305Z,18.1
2022-08-03T00:56:01.468Z,18.3
2022-08-03T00:58:01.850Z,18.1
2022-08-03T01:00:05.082Z,18.2
2022-08-03T01:02:02.971Z,18.2
2022-08-03T01:04:01.569Z,18.2
2022-08-03T01:06:04.501Z,18.1
2022-08-03T01:08:03.789Z,18.1
2022-08-03T01:10:02.227Z,18.1
2022-08-03T01:12:01.939Z,18.1
2022-08-03T01:14:04.851Z,18.1
2022-08-03T01:16:03.778Z,18.2
2022-08-03T01:18:02.828Z,18.3
2022-08-03T01:20:05.054Z,18.5
2022-08-03T01:22:02.272Z,18.6
2022-08-03T01:24:04.479Z,18.2
2022-08-03T01:26:01.881Z,18
2022-08-03T01:28:02.205Z,17.9
2022-08-03T01:30:06.842Z,18
2022-08-03T01:32:52.103Z,17.9
2022-08-03T01:34:01.877Z,17.7
2022-08-03T01:38:04.799Z,17.8
2022-08-03T01:40:02.171Z,17.7
2022-08-03T01:44:28.733Z,17.6
2022-08-03T01:46:02.174Z,17.7
2022-08-03T01:48:01.394Z,17.7
2022-08-03T01:50:04.520Z,17.6
2022-08-03T01:52:03.724Z,17.5
2022-08-03T01:54:06.908Z,17.6
2022-08-03T01:56:02.758Z,17.6
2022-08-03T01:58:04.512Z,17.6
2022-08-03T02:00:01.596Z,18
2022-08-03T02:02:15.774Z,18.1
2022-08-03T02:04:01.937Z,18.1
2022-08-03T02:06:24.987Z,17.9
2022-08-03T02:08:01.853Z,18
2022-08-03T02:10:11.595Z,18.1
2022-08-03T02:12:04.999Z,18.1
2022-08-03T02:14:07.621Z,18.2
2022-08-03T02:16:05.082Z,18.2
2022-08-03T02:18:01.437Z,18.1
2022-08-03T02:20:04.334Z,18
2022-08-03T02:22:01.892Z,18
2022-08-03T02:24:04.313Z,18
2022-08-03T02:26:01.850Z,17.9
2022-08-03T02:28:04.835Z,17.7
2022-08-03T02:30:01.413Z,17.6
2022-08-03T02:32:01.478Z,17.6
2022-08-03T02:34:01.200Z,17.5
2022-08-03T02:36:03.909Z,17.6
2022-08-03T02:38:01.937Z,17.8
2022-08-03T02:42:01.448Z,17.6
2022-08-03T02:44:05.866Z,17.4
2022-08-03T02:46:04.482Z,17.3
2022-08-03T02:48:01.430Z,17.1
2022-08-03T02:50:01.504Z,17
2022-08-03T02:52:01.202Z,17.3
2022-08-03T02:54:05.036Z,17.1
2022-08-03T02:56:04.759Z,17
2022-08-03T02:58:01.297Z,17.3
2022-08-03T03:00:01.813Z,17.3
2022-08-03T03:02:01.484Z,17.5
2022-08-03T03:04:02.181Z,17.2
2022-08-03T03:06:01.476Z,17.1
2022-08-03T03:08:05.113Z,17.3
2022-08-03T03:10:01.241Z,17.4
2022-08-03T03:12:01.439Z,17.2
2022-08-03T03:16:07.392Z,17.2
2022-08-03T03:20:02.465Z,17.4
2022-08-03T03:22:01.201Z,17.2
2022-08-03T03:26:08.567Z,17.1
2022-08-03T03:30:02.832Z,16.9
2022-08-03T03:32:01.492Z,17.3
2022-08-03T03:34:01.222Z,17.6
2022-08-03T03:36:01.453Z,17.5
2022-08-03T03:38:04.351Z,17.1
2022-08-03T03:40:01.651Z,16.8
2022-08-03T03:42:01.444Z,16.7
2022-08-03T03:44:04.353Z,16.8
2022-08-03T03:46:02.033Z,17.2
2022-08-03T03:48:05.912Z,16.8
2022-08-03T03:50:01.451Z,17
2022-08-03T03:54:04.244Z,16.9
2022-08-03T03:56:03.065Z,16.8
2022-08-03T03:58:01.221Z,16.7
2022-08-03T04:00:05.545Z,16.8
2022-08-03T04:02:01.942Z,16.9
2022-08-03T04:04:01.687Z,16.8
2022-08-03T04:06:04.328Z,16.7
2022-08-03T04:08:01.926Z,16.6
2022-08-03T04:10:02.597Z,16.7
2022-08-03T04:12:02.174Z,16.8
2022-08-03T04:14:03.221Z,16.9
2022-08-03T04:16:01.896Z,16.8
2022-08-03T04:18:02.479Z,16.8
2022-08-03T04:20:02.179Z,16.9
2022-08-03T04:22:01.888Z,16.9
2022-08-03T04:24:04.790Z,17.3
2022-08-03T04:26:02.161Z,17.4
2022-08-03T04:28:07.613Z,17.3
2022-08-03T04:30:02.117Z,17.1
2022-08-03T04:32:05.993Z,17.1
2022-08-03T04:36:03.563Z,17.1
2022-08-03T04:38:02.126Z,17
2022-08-03T04:40:04.518Z,16.8
2022-08-03T04:42:06.977Z,16.8
2022-08-03T04:44:02.125Z,16.7
2022-08-03T04:46:05.657Z,16.7
2022-08-03T04:48:02.901Z,16.7
2022-08-03T04:50:02.169Z,16.7
2022-08-03T04:52:01.902Z,16.7
2022-08-03T04:54:02.119Z,16.8
2022-08-03T04:56:03.971Z,16.9
2022-08-03T04:58:02.958Z,17
2022-08-03T05:00:03.667Z,17.1
2022-08-03T05:02:02.188Z,17.4
2022-08-03T05:04:02.240Z,17.5
2022-08-03T05:06:10.130Z,17.6
2022-08-03T05:08:02.158Z,17.7
2022-08-03T05:10:03.334Z,17.8
2022-08-03T05:12:02.150Z,17.8
2022-08-03T05:14:02.149Z,18
2022-08-03T05:16:01.923Z,18.1
2022-08-03T05:18:02.096Z,18.1
2022-08-03T05:20:02.160Z,18.3
2022-08-03T05:22:04.775Z,18.4
2022-08-03T05:24:02.922Z,18.7
2022-08-03T05:26:02.126Z,18.5
2022-08-03T05:28:02.619Z,18.5
2022-08-03T05:30:26.513Z,18.6
2022-08-03T05:32:06.303Z,18.8
2022-08-03T05:34:01.922Z,18.8
2022-08-03T05:38:02.182Z,19
2022-08-03T05:40:01.945Z,19.2
2022-08-03T05:42:02.114Z,19.7
2022-08-03T05:44:02.152Z,22.6
2022-08-03T05:48:03.593Z,24.2
2022-08-03T05:50:02.130Z,24.3
2022-08-03T05:52:09.736Z,24.3
2022-08-03T05:54:05.116Z,24.4
2022-08-03T05:56:02.663Z,24.5
2022-08-03T05:58:02.635Z,24.5
2022-08-03T06:00:02.228Z,24.5
2022-08-03T06:02:02.250Z,24.4
2022-08-03T06:04:05.160Z,24.5
2022-08-03T06:06:02.162Z,24.6
2022-08-03T06:12:02.151Z,24.8
2022-08-03T06:14:02.888Z,24.9
2022-08-03T06:16:03.246Z,24.9
2022-08-03T06:18:02.617Z,24.9
2022-08-03T06:22:01.921Z,25
2022-08-03T06:24:02.500Z,24.9
2022-08-03T06:26:03.677Z,25
2022-08-03T06:28:02.299Z,25.1
2022-08-03T06:30:02.144Z,25.1
2022-08-03T06:32:03.231Z,25.2
2022-08-03T06:34:32.069Z,25.2
2022-08-03T06:36:06.067Z,25.3
2022-08-03T06:38:02.152Z,25.3
2022-08-03T06:40:15.676Z,25.4
2022-08-03T06:42:02.202Z,25.3
2022-08-03T06:44:04.453Z,25.4
2022-08-03T06:46:02.394Z,25.1
2022-08-03T06:48:02.986Z,25.3
2022-08-03T06:50:13.094Z,25.2
2022-08-03T06:52:02.766Z,25
2022-08-03T06:54:10.699Z,24.8
2022-08-03T06:56:03.002Z,24.5
2022-08-03T06:58:03.135Z,24.8
2022-08-03T07:02:06.298Z,24.7
2022-08-03T07:06:02.498Z,25
2022-08-03T07:08:03.206Z,25
2022-08-03T07:12:03.044Z,25.4
2022-08-03T07:14:02.148Z,25.3
2022-08-03T07:16:02.659Z,25.4
2022-08-03T07:18:03.014Z,25.9
2022-08-03T07:20:02.534Z,25.9
2022-08-03T07:22:04.280Z,25.8
2022-08-03T07:24:02.586Z,26.1
2022-08-03T07:26:02.157Z,26.1
2022-08-03T07:28:01.936Z,26.2
2022-08-03T07:32:02.185Z,26.3
2022-08-03T07:34:01.904Z,26.4
2022-08-03T07:36:02.148Z,26.3
2022-08-03T07:38:08.482Z,26.4
2022-08-03T07:40:01.944Z,26.6
2022-08-03T07:42:02.127Z,26.6
2022-08-03T07:44:02.227Z,26.4
2022-08-03T07:46:02.641Z,26.6
2022-08-03T07:48:02.874Z,26.7
2022-08-03T07:50:02.630Z,26.8
2022-08-03T07:52:03.341Z,26.8
2022-08-03T07:54:02.609Z,26.9
2022-08-03T07:56:02.511Z,26.8
2022-08-03T07:58:03.271Z,26.8
2022-08-03T08:00:02.777Z,27
2022-08-03T08:02:02.211Z,26.9
2022-08-03T08:04:01.980Z,27
2022-08-03T08:06:05.025Z,27.1
2022-08-03T08:08:03.245Z,27.3
2022-08-03T08:10:02.290Z,27.3
2022-08-03T08:12:02.141Z,27.3
2022-08-03T08:14:02.987Z,27.3
2022-08-03T08:16:01.941Z,27.3
2022-08-03T08:18:02.114Z,27.2
2022-08-03T08:20:02.997Z,27.2
2022-08-03T08:22:02.955Z,27.3
2022-08-03T08:24:02.371Z,27.4
2022-08-03T08:26:09.332Z,27.4
2022-08-03T08:28:21.819Z,27.3
2022-08-03T08:30:08.766Z,27.4
2022-08-03T08:32:06.582Z,27.3
2022-08-03T08:34:03.875Z,27
2022-08-03T08:36:03.525Z,27.3
2022-08-03T08:38:04.127Z,27.4
2022-08-03T08:40:02.305Z,27.5
2022-08-03T08:44:02.174Z,27.8
2022-08-03T08:46:01.956Z,27.9
2022-08-03T08:48:08.169Z,27.9
2022-08-03T08:50:09.952Z,27.9
2022-08-03T08:52:02.409Z,28.1
2022-08-03T08:54:02.134Z,28.1
2022-08-03T08:56:02.166Z,27.9
2022-08-03T09:00:02.154Z,27.8
2022-08-03T09:02:03.041Z,27.9
2022-08-03T09:04:06.752Z,27.9
2022-08-03T09:06:03.126Z,27.9
2022-08-03T09:08:02.520Z,28
2022-08-03T09:10:10.690Z,27.9
2022-08-03T09:12:21.062Z,27.8
2022-08-03T09:14:03.077Z,27.9
2022-08-03T09:16:01.939Z,28
2022-08-03T09:18:02.602Z,27.9
2022-08-03T09:22:01.917Z,27.9
2022-08-03T09:24:03.621Z,28
2022-08-03T09:26:02.661Z,28.1
2022-08-03T09:28:01.948Z,28.2
2022-08-03T09:30:02.164Z,28.1
2022-08-03T09:32:02.191Z,27.9
2022-08-03T09:34:03.140Z,28
2022-08-03T09:36:02.898Z,28.2
2022-08-03T09:38:11.965Z,28.2
2022-08-03T09:40:03.333Z,28.4
2022-08-03T09:42:03.055Z,28.2
2022-08-03T09:44:02.211Z,28.1
2022-08-03T09:46:06.236Z,28.1
2022-08-03T09:48:02.771Z,28.3
2022-08-03T09:50:03.157Z,28.5
2022-08-03T09:52:24.759Z,28.5
2022-08-03T09:54:02.144Z,28.5
2022-08-03T09:56:35.432Z,28.4
2022-08-03T09:58:01.919Z,28.2
2022-08-03T10:00:07.796Z,28.4
2022-08-03T10:02:02.898Z,28.6
2022-08-03T10:04:04.815Z,28.7
2022-08-03T10:06:05.905Z,28.7
2022-08-03T10:08:02.594Z,28.7
2022-08-03T10:10:28.673Z,28.7
2022-08-03T10:12:02.154Z,28.7
2022-08-03T10:14:02.175Z,28.8
2022-08-03T10:16:20.938Z,28.8
2022-08-03T10:18:02.188Z,28.8
2022-08-03T10:20:02.172Z,28.9
2022-08-03T10:22:03.743Z,28.8
2022-08-03T10:24:03.090Z,28.9
2022-08-03T10:26:03.094Z,28.9
2022-08-03T10:28:01.931Z,28.9
2022-08-03T10:30:02.161Z,28.8
2022-08-03T10:34:02.706Z,28.8
2022-08-03T10:36:03.150Z,28.9
2022-08-03T10:38:02.553Z,28.9
2022-08-03T10:40:02.298Z,29
2022-08-03T10:42:02.522Z,29.1
2022-08-03T10:44:03.113Z,29.1
2022-08-03T10:46:01.955Z,29
2022-08-03T10:48:04.485Z,28.9
2022-08-03T10:50:02.653Z,29
2022-08-03T10:52:02.711Z,29
2022-08-03T10:54:02.599Z,29.1
2022-08-03T10:56:02.169Z,29.1
2022-08-03T10:58:01.956Z,29.1
2022-08-03T11:00:09.604Z,29.2
2022-08-03T11:02:02.228Z,29.2
2022-08-03T11:04:04.813Z,29.3
2022-08-03T11:06:06.598Z,29.3
2022-08-03T11:08:02.269Z,29.3
2022-08-03T11:10:05.558Z,29.2
2022-08-03T11:12:02.503Z,29.2
2022-08-03T11:14:03.061Z,29.3
2022-08-03T11:16:03.906Z,29.3
2022-08-03T11:18:03.414Z,29.3
2022-08-03T11:20:02.366Z,29.2
2022-08-03T11:22:02.054Z,29.2
2022-08-03T11:24:06.206Z,29.3
2022-08-03T11:26:11.773Z,29.3
2022-08-03T11:28:01.951Z,29.3
2022-08-03T11:30:03.931Z,29.3
2022-08-03T11:32:02.264Z,29.3
2022-08-03T11:34:01.990Z,29.3
2022-08-03T11:36:02.266Z,29.3
2022-08-03T11:38:04.512Z,29.3
2022-08-03T11:40:03.155Z,29.1
2022-08-03T11:42:02.217Z,29.3
2022-08-03T11:44:03.113Z,29.3
2022-08-03T11:46:05.474Z,29.4
2022-08-03T11:48:02.166Z,29.5
2022-08-03T11:50:03.215Z,29.5
2022-08-03T11:52:03.430Z,29.6
2022-08-03T11:54:02.577Z,29.5
2022-08-03T11:56:02.172Z,29.6
2022-08-03T12:00:03.171Z,29.6
2022-08-03T12:02:02.316Z,29.7
2022-08-03T12:04:03.107Z,29.8
2022-08-03T12:06:02.342Z,29.8
2022-08-03T12:08:06.269Z,29.7
2022-08-03T12:10:01.991Z,29.7
2022-08-03T12:12:05.032Z,29.8
2022-08-03T12:14:45.870Z,29.9
2022-08-03T12:16:03.339Z,29.7
2022-08-03T12:18:02.932Z,29.7
2022-08-03T12:20:02.576Z,29.6
2022-08-03T12:22:02.277Z,29.7
2022-08-03T12:24:06.122Z,29.7
2022-08-03T12:28:02.320Z,29.8
2022-08-03T12:30:02.367Z,29.8
2022-08-03T12:32:02.301Z,29.8
2022-08-03T12:34:03.419Z,29.8
2022-08-03T12:36:02.206Z,29.8
2022-08-03T12:38:03.664Z,29.9
2022-08-03T12:40:05.569Z,29.8
2022-08-03T12:42:02.697Z,29.9
2022-08-03T12:44:02.194Z,29.8
2022-08-03T12:46:03.510Z,29.9
2022-08-03T12:48:02.181Z,29.9
2022-08-03T12:52:07.340Z,29.9
2022-08-03T12:54:02.220Z,29.9
2022-08-03T12:56:05.538Z,29.9
2022-08-03T12:58:03.128Z,30
2022-08-03T13:00:02.359Z,30
2022-08-03T13:02:02.484Z,30
2022-08-03T13:04:04.920Z,30
2022-08-03T13:06:03.041Z,30
2022-08-03T13:08:02.285Z,30
2022-08-03T13:10:06.296Z,29.9
2022-08-03T13:12:02.720Z,29.9
2022-08-03T13:14:06.230Z,29.9
2022-08-03T13:16:03.104Z,30
2022-08-03T13:18:02.656Z,30
2022-08-03T13:20:02.225Z,30
2022-08-03T13:22:04.476Z,30
2022-08-03T13:24:02.563Z,30
2022-08-03T13:28:09.984Z,30.1
2022-08-03T13:30:03.982Z,30.1
2022-08-03T13:34:02.863Z,30.1
2022-08-03T13:36:03.452Z,30.2
2022-08-03T13:38:05.360Z,30.2
2022-08-03T13:40:03.819Z,30.2
2022-08-03T13:42:02.523Z,30.2
2022-08-03T13:44:26.424Z,30.3
2022-08-03T13:46:02.329Z,30.4
2022-08-03T13:48:06.201Z,30.4
2022-08-03T13:50:03.218Z,30.4
2022-08-03T13:52:01.999Z,30.4
2022-08-03T13:56:03.153Z,30.4
2022-08-03T13:58:07.183Z,30.4
2022-08-03T14:00:04.771Z,30.3
2022-08-03T14:02:10.074Z,30.3
2022-08-03T14:04:03.177Z,30.4
2022-08-03T14:08:04.515Z,30.3
2022-08-03T14:10:02.833Z,30.3
2022-08-03T14:12:03.840Z,30.3
2022-08-03T14:14:02.266Z,30.3
2022-08-03T14:16:03.161Z,30.3
2022-08-03T14:18:02.900Z,30.3
2022-08-03T14:20:03.565Z,30.3
2022-08-03T14:22:03.679Z,30.2
2022-08-03T14:24:02.231Z,30.2
2022-08-03T14:26:02.621Z,30.2
2022-08-03T14:28:01.974Z,30.3
2022-08-03T14:30:03.413Z,30.4
2022-08-03T14:32:10.692Z,30.3
2022-08-03T14:34:02.336Z,30.2
2022-08-03T14:36:02.302Z,30.2
2022-08-03T14:38:04.924Z,30.2
2022-08-03T14:40:02.016Z,30.2
2022-08-03T14:42:03.142Z,30.3
2022-08-03T14:44:02.521Z,30.3
2022-08-03T14:46:04.060Z,30.2
2022-08-03T14:49:02.463Z,30.2
2022-08-03T14:50:35.216Z,30.2
2022-08-03T14:52:02.325Z,30.2
2022-08-03T14:54:02.200Z,30.2
2022-08-03T14:56:10.914Z,30.2
2022-08-03T14:58:03.205Z,30.3
2022-08-03T15:02:08.812Z,30.3
2022-08-03T15:04:01.996Z,30.3
2022-08-03T15:06:06.548Z,30.3
2022-08-03T15:08:05.237Z,30.3
2022-08-03T15:10:03.932Z,30.2
2022-08-03T15:12:02.580Z,30.2
2022-08-03T15:14:05.035Z,30.2
2022-08-03T15:16:01.979Z,30.2
2022-08-03T15:18:02.233Z,30.2
2022-08-03T15:22:02.014Z,30.2
2022-08-03T15:24:02.186Z,30.3
2022-08-03T15:26:30.106Z,30.3
2022-08-03T15:28:04.638Z,30.2
2022-08-03T15:30:06.258Z,30.2
2022-08-03T15:32:06.113Z,30.2
2022-08-03T15:34:02.017Z,30.2
2022-08-03T15:36:02.580Z,30.2
2022-08-03T15:38:05.006Z,30.2
2022-08-03T15:40:02.542Z,30.2
2022-08-03T15:42:03.437Z,30.2
2022-08-03T15:44:05.183Z,30.2
2022-08-03T15:46:28.097Z,30.2
2022-08-03T15:48:02.962Z,30.2
2022-08-03T15:50:06.584Z,30.2
2022-08-03T15:52:02.016Z,30.2
2022-08-03T15:54:02.578Z,30.2
2022-08-03T15:56:05.214Z,30.3
2022-08-03T15:58:59.079Z,30.2
2022-08-03T16:00:09.627Z,30.2
2022-08-03T16:02:03.038Z,30.2
2022-08-03T16:04:09.449Z,30.1
2022-08-03T16:06:02.285Z,30.2
2022-08-03T16:08:05.040Z,30.2
2022-08-03T16:10:07.937Z,30.2
2022-08-03T16:12:02.235Z,30.2
2022-08-03T16:14:14.610Z,30.2
2022-08-03T16:16:03.150Z,30.2
2022-08-03T16:18:02.203Z,30.1
2022-08-03T16:20:05.142Z,30.1
2022-08-03T16:22:02.004Z,30.1
2022-08-03T16:24:02.207Z,30.1
2022-08-03T16:26:06.199Z,30.1
2022-08-03T16:28:07.528Z,30.1
2022-08-03T16:30:03.711Z,30.1
2022-08-03T16:32:06.127Z,30.1
2022-08-03T16:36:02.231Z,30
2022-08-03T16:38:06.621Z,30
2022-08-03T16:40:02.096Z,30
2022-08-03T16:42:02.223Z,30
2022-08-03T16:44:05.457Z,30
2022-08-03T16:46:02.011Z,30
2022-08-03T16:48:04.930Z,30
2022-08-03T16:50:05.825Z,30
2022-08-03T16:52:03.213Z,29.9
2022-08-03T16:54:08.081Z,29.9
2022-08-03T16:56:04.593Z,30
2022-08-03T17:00:02.396Z,30
2022-08-03T17:04:04.121Z,29.9
2022-08-03T17:06:02.253Z,29.9
2022-08-03T17:08:04.326Z,29.9
2022-08-03T17:10:02.064Z,29.8
2022-08-03T17:12:02.209Z,29.8
2022-08-03T17:14:06.520Z,29.8
2022-08-03T17:16:02.111Z,29.8
2022-08-03T17:18:02.192Z,29.8
2022-08-03T17:20:04.529Z,29.7
2022-08-03T17:22:02.144Z,29.7
2022-08-03T17:24:02.206Z,29.7
2022-08-03T17:26:17.409Z,29.7
2022-08-03T17:28:42.554Z,29.7
2022-08-03T17:30:03.273Z,29.7
2022-08-03T17:36:02.282Z,29.6
2022-08-03T17:38:03.554Z,29.6
2022-08-03T17:40:03.855Z,29.6
2022-08-03T17:42:02.243Z,29.6
2022-08-03T17:44:14.806Z,29.6
2022-08-03T17:46:03.236Z,29.5
2022-08-03T17:48:03.519Z,29.5
2022-08-03T17:50:04.539Z,29.5
2022-08-03T17:52:03.055Z,29.5
2022-08-03T17:54:03.152Z,29.5
2022-08-03T17:56:04.076Z,29.5
2022-08-03T17:58:03.167Z,29.4
2022-08-03T18:00:02.479Z,29.4
2022-08-03T18:02:13.288Z,29.3
2022-08-03T18:04:02.046Z,29.3
2022-08-03T18:06:08.847Z,29.3
2022-08-03T18:08:04.195Z,29.3
2022-08-03T18:10:05.479Z,29.3
2022-08-03T18:12:02.684Z,29.2
2022-08-03T18:16:02.283Z,29.1
2022-08-03T18:20:10.751Z,29.1
2022-08-03T18:22:04.230Z,29.1
2022-08-03T18:24:04.705Z,28.9
2022-08-03T18:26:04.679Z,28.9
2022-08-03T18:28:02.057Z,28.8
2022-08-03T18:30:02.379Z,28.8
2022-08-03T18:32:04.790Z,28.8
2022-08-03T18:34:15.858Z,28.7
2022-08-03T18:36:09.252Z,28.5
2022-08-03T18:38:19.080Z,28.3
2022-08-03T18:40:02.117Z,28.3
2022-08-03T18:42:03.181Z,28.2
2022-08-03T18:44:07.534Z,28.1
2022-08-03T18:46:04.876Z,28.1
2022-08-03T18:48:02.685Z,28
2022-08-03T18:50:02.719Z,28
2022-08-03T18:52:04.693Z,28.1
2022-08-03T18:54:06.127Z,27.9
2022-08-03T18:56:03.022Z,27.8
2022-08-03T18:58:02.032Z,27.6
2022-08-03T19:00:02.707Z,27.5
2022-08-03T19:02:03.960Z,27.5
2022-08-03T19:04:02.018Z,27.4
2022-08-03T19:06:08.537Z,27.3
2022-08-03T19:08:02.268Z,27.1
2022-08-03T19:10:03.631Z,27.2
2022-08-03T19:12:10.935Z,27.1
2022-08-03T19:14:02.298Z,27.1
2022-08-03T19:16:02.360Z,27.2
2022-08-03T19:18:03.986Z,27.3
2022-08-03T19:20:02.369Z,27.3
2022-08-03T19:22:05.776Z,27.1
2022-08-03T19:24:06.683Z,27.2
2022-08-03T19:28:02.745Z,27.1
2022-08-03T19:30:04.413Z,27
2022-08-03T19:32:02.288Z,26.9
2022-08-03T19:34:03.257Z,26.8
2022-08-03T19:36:06.034Z,26.7
2022-08-03T19:38:08.230Z,26.8
2022-08-03T19:40:02.047Z,26.7
2022-08-03T19:42:03.428Z,26.6
2022-08-03T19:46:04.598Z,26.6
2022-08-03T19:48:05.693Z,26.5
2022-08-03T19:50:05.455Z,26.5
2022-08-03T19:52:03.592Z,26.4
2022-08-03T19:54:05.713Z,26.4
2022-08-03T19:56:02.846Z,26.4
2022-08-03T19:58:02.025Z,26.4
2022-08-03T20:00:04.953Z,26.3
2022-08-03T20:04:02.015Z,26.2
2022-08-03T20:06:02.274Z,26.1
2022-08-03T20:08:05.175Z,26.1
2022-08-03T20:10:03.381Z,26.1
2022-08-03T20:12:02.627Z,26.1
2022-08-03T20:14:02.279Z,25.9
2022-08-03T20:16:08.366Z,25.9
2022-08-03T20:18:03.435Z,25.9
2022-08-03T20:20:02.264Z,25.9
2022-08-03T20:24:02.990Z,25.8
2022-08-03T20:26:02.292Z,25.6
2022-08-03T20:28:06.795Z,25.6
2022-08-03T20:30:05.516Z,25.6
2022-08-03T20:32:02.325Z,25.6
2022-08-03T20:34:04.888Z,25.7
2022-08-03T20:36:03.950Z,25.7
2022-08-03T20:38:03.850Z,25.7
2022-08-03T20:40:03.211Z,25.5
2022-08-03T20:42:02.320Z,25.5
2022-08-03T20:44:03.213Z,25.4
2022-08-03T20:46:29.875Z,25.3
2022-08-03T20:48:03.504Z,25.3
2022-08-03T20:50:02.297Z,25.3
2022-08-03T20:54:06.500Z,25.3
2022-08-03T20:56:03.398Z,25.3
2022-08-03T20:58:03.447Z,25.3
2022-08-03T21:00:05.392Z,25.3
2022-08-03T21:02:02.304Z,25.2
2022-08-03T21:04:06.689Z,25.2
2022-08-03T21:06:02.780Z,25.2
2022-08-03T21:08:04.644Z,25.1
2022-08-03T21:12:02.237Z,25.1
2022-08-03T21:13:06.487Z,26.5
2022-08-03T21:16:03.370Z,25
2022-08-03T21:18:02.377Z,25
2022-08-03T21:22:03.507Z,24.8
2022-08-03T21:24:03.260Z,24.7
2022-08-03T21:26:02.351Z,24.7
2022-08-03T21:28:02.020Z,24.7
2022-08-03T21:30:02.321Z,24.7
2022-08-03T21:32:02.534Z,24.6
2022-08-03T21:34:02.045Z,24.7
2022-08-03T21:36:04.879Z,24.5
2022-08-03T21:38:02.448Z,24.5
2022-08-03T21:40:03.454Z,24.5
2022-08-03T21:42:02.282Z,24.5
2022-08-03T21:44:05.125Z,24.5
2022-08-03T21:46:02.028Z,24.4
2022-08-03T21:48:02.249Z,24.4
2022-08-03T21:50:08.126Z,24.4
2022-08-03T21:52:06.431Z,24.4
2022-08-03T21:54:04.455Z,24.4
2022-08-03T21:56:02.742Z,24.3
2022-08-03T21:58:02.731Z,24.3
2022-08-03T22:00:03.957Z,24.3
2022-08-03T22:02:02.436Z,24.3
2022-08-03T22:04:02.054Z,24.3
2022-08-03T22:06:04.999Z,24.3
2022-08-03T22:08:02.764Z,24.3
2022-08-03T22:10:02.417Z,24.2
2022-08-03T22:12:02.276Z,24.2
2022-08-03T22:14:02.293Z,24.2
2022-08-03T22:16:02.032Z,24.2
2022-08-03T22:18:02.741Z,24.1
2022-08-03T22:20:08.056Z,24.2
2022-08-03T22:22:02.070Z,24.2
2022-08-03T22:24:03.871Z,24.1
2022-08-03T22:26:03.253Z,24.1
2022-08-03T22:28:02.083Z,24.1
2022-08-03T22:30:03.659Z,24
2022-08-03T22:32:02.805Z,24.1
2022-08-03T22:34:03.683Z,24
2022-08-03T22:36:02.635Z,24
2022-08-03T22:38:02.298Z,24
2022-08-03T22:40:04.839Z,24
2022-08-03T22:42:06.590Z,23.9
2022-08-03T22:44:04.504Z,23.8
2022-08-03T22:46:08.818Z,23.8
2022-08-03T22:48:02.243Z,23.8
2022-08-03T22:50:31.137Z,23.7
2022-08-03T22:52:03.392Z,23.7
2022-08-03T22:54:05.448Z,23.6
2022-08-03T22:56:02.300Z,23.6
2022-08-03T22:58:02.061Z,23.6
2022-08-03T23:00:04.913Z,23.6
2022-08-03T23:02:02.405Z,23.5
2022-08-03T23:04:02.504Z,23.5
2022-08-03T23:06:04.026Z,23.5
2022-08-03T23:08:03.288Z,23.5
2022-08-03T23:10:02.413Z,23.4
2022-08-03T23:12:02.654Z,23.3
2022-08-03T23:14:06.590Z,23.3
2022-08-03T23:16:05.000Z,23.3
2022-08-03T23:18:02.283Z,23.3
2022-08-03T23:20:10.225Z,23.3
2022-08-03T23:22:04.222Z,23.2
2022-08-03T23:24:02.627Z,23.2
2022-08-03T23:26:06.387Z,23.3
2022-08-03T23:28:04.773Z,23.3
2022-08-03T23:30:02.591Z,23.3
2022-08-03T23:32:04.867Z,23.4
2022-08-03T23:34:02.117Z,23.5
2022-08-03T23:36:29.932Z,23.5
2022-08-03T23:38:03.762Z,23.5
2022-08-03T23:42:02.295Z,23.4
2022-08-03T23:46:02.052Z,23.4
2022-08-03T23:48:02.638Z,23.3
2022-08-03T23:50:02.663Z,23.1
2022-08-03T23:52:03.365Z,23
2022-08-03T23:54:03.275Z,23
2022-08-03T23:56:03.650Z,23
2022-08-03T23:58:02.793Z,22.9
